Time;durP1;ratioP1;P1;durP2;ratioP2;P2;SDS_P1;SDS_P2;PMS_P1;PMS_P2;Temp;Humidity;BMP_temperature;BMP_pressure;BME280_temperature;BME280_humidity;BME280_pressure;Samples;Min_cycle;Max_cycle;Signal;HPM_P1;HPM_P2
2022/08/10 00:03:08;;;;;;;3.27;2.10;;;25.70;87.40;;;;;;1912086;75;21150;-77
2022/08/10 00:06:00;;;;;;;3.47;2.05;;;25.80;86.70;;;;;;1903088;75;21060;-77
2022/08/10 00:08:51;;;;;;;2.55;2.30;;;25.80;86.60;;;;;;1901069;75;21104;-77
2022/08/10 00:11:42;;;;;;;2.92;2.30;;;25.80;86.90;;;;;;1907480;75;21105;-78
2022/08/10 00:14:33;;;;;;;3.67;2.30;;;25.80;87.00;;;;;;1899095;75;21248;-77
2022/08/10 00:17:24;;;;;;;1.57;1.42;;;25.80;87.00;;;;;;1904595;73;21113;-75
2022/08/10 00:20:15;;;;;;;3.35;1.62;;;25.80;86.80;;;;;;1892299;75;21128;-81
2022/08/10 00:23:08;;;;;;;2.85;1.65;;;25.60;85.90;;;;;;1887586;75;21050;-73
2022/08/10 00:26:01;;;;;;;2.10;1.90;;;25.50;86.00;;;;;;1906001;75;21091;-73
2022/08/10 00:28:52;;;;;;;2.10;1.90;;;25.50;86.30;;;;;;1889995;75;21079;-73
2022/08/10 00:31:43;;;;;;;2.42;2.15;;;25.50;86.30;;;;;;1904458;73;21153;-73
2022/08/10 00:34:36;;;;;;;2.20;2.00;;;25.60;86.10;;;;;;1897357;75;21143;-72
2022/08/10 00:37:27;;;;;;;3.42;2.42;;;25.60;86.20;;;;;;1911692;75;21038;-73
2022/08/10 00:40:18;;;;;;;4.15;2.60;;;25.60;87.50;;;;;;1912991;75;21129;-73
2022/08/10 00:43:11;;;;;;;3.42;2.58;;;25.60;87.50;;;;;;1926952;73;21660;-73
2022/08/10 00:46:03;;;;;;;3.60;2.62;;;25.60;88.20;;;;;;1900789;75;21430;-73
2022/08/10 00:48:55;;;;;;;2.77;2.55;;;25.50;88.50;;;;;;1907920;75;21117;-73
2022/08/10 00:51:47;;;;;;;3.00;2.40;;;25.50;88.80;;;;;;1905472;75;21238;-73
2022/08/10 00:54:40;;;;;;;3.58;2.37;;;25.50;88.50;;;;;;1904490;75;21189;-73
2022/08/10 01:00:22;;;;;;;2.83;2.00;;;25.40;88.30;;;;;;1926262;72;22185;-72
2022/08/10 01:03:27;;;;;;;2.60;2.10;;;25.40;88.90;;;;;;1908204;74;21489;-72
2022/08/10 01:06:23;;;;;;;3.90;1.90;;;25.30;88.20;;;;;;1922681;74;21109;-72
2022/08/10 01:09:18;;;;;;;2.40;2.10;;;25.40;87.90;;;;;;1895592;75;21077;-72
2022/08/10 01:12:12;;;;;;;2.72;2.15;;;25.40;88.00;;;;;;1935584;74;21102;-72
2022/08/10 01:15:08;;;;;;;2.80;2.20;;;25.40;88.40;;;;;;1907752;75;21242;-72
2022/08/10 01:20:46;;;;;;;2.33;2.12;;;25.30;88.60;;;;;;1923728;72;22172;-72
2022/08/10 01:27:06;;;;;;;4.87;2.50;;;25.20;89.10;;;;;;1953503;72;22153;-72
2022/08/10 01:30:04;;;;;;;2.20;2.00;;;25.20;89.70;;;;;;1903061;75;21067;-72
2022/08/10 01:33:05;;;;;;;2.50;2.30;;;25.20;90.00;;;;;;1900873;75;21136;-73
2022/08/10 01:35:59;;;;;;;3.47;2.42;;;25.20;90.10;;;;;;1884825;75;21164;-73
2022/08/10 01:38:53;;;;;;;5.45;2.50;;;25.20;90.30;;;;;;1902519;75;21535;-73
2022/08/10 01:41:47;;;;;;;4.53;2.67;;;25.10;90.50;;;;;;1908118;75;21127;-73
2022/08/10 01:44:43;;;;;;;2.65;2.45;;;25.10;90.80;;;;;;1897028;75;21091;-73
2022/08/10 01:50:27;;;;;;;4.20;2.20;;;25.20;90.90;;;;;;1944092;72;22253;-72
2022/08/10 01:53:21;;;;;;;3.33;2.22;;;25.20;90.80;;;;;;1922517;73;21068;-72
2022/08/10 01:56:16;;;;;;;4.03;2.17;;;25.10;90.80;;;;;;1917445;75;21603;-72
2022/08/10 01:59:10;;;;;;;2.90;2.40;;;25.10;90.90;;;;;;1935056;73;21510;-72
2022/08/10 02:02:04;;;;;;;3.40;2.33;;;25.00;91.10;;;;;;1917773;73;21096;-72
2022/08/10 02:04:58;;;;;;;2.60;2.40;;;25.00;91.50;;;;;;1920762;73;21145;-72
2022/08/10 02:07:50;;;;;;;3.70;2.20;;;25.00;91.40;;;;;;1927092;73;21143;-72
2022/08/10 02:13:22;;;;;;;2.90;2.20;;;25.00;91.60;;;;;;1938995;72;22149;-72
2022/08/10 02:16:16;;;;;;;3.27;2.10;;;25.00;91.50;;;;;;1906209;75;21062;-72
2022/08/10 02:19:09;;;;;;;3.12;2.22;;;24.90;91.60;;;;;;1910683;75;21129;-72
2022/08/10 02:22:03;;;;;;;2.12;1.95;;;24.80;91.50;;;;;;1904178;75;21711;-72
2022/08/10 02:27:36;;;;;;;2.05;1.95;;;24.70;91.60;;;;;;1929365;72;22155;-72
2022/08/10 02:30:30;;;;;;;2.47;1.85;;;24.60;91.60;;;;;;1900324;75;21090;-72
2022/08/10 02:36:03;;;;;;;1.90;1.80;;;24.60;91.40;;;;;;1929296;72;22315;-72
2022/08/10 02:38:57;;;;;;;2.30;2.02;;;24.60;91.40;;;;;;1900215;75;21063;-73
2022/08/10 02:41:54;;;;;;;3.00;2.33;;;24.50;91.60;;;;;;1898837;75;21055;-73
2022/08/10 02:44:49;;;;;;;2.58;2.30;;;24.50;92.10;;;;;;1884754;75;21051;-73
2022/08/10 02:47:45;;;;;;;3.00;2.22;;;24.50;92.30;;;;;;1888994;75;21214;-73
2022/08/10 02:50:40;;;;;;;2.60;2.40;;;24.50;92.60;;;;;;1896610;75;21106;-73
2022/08/10 02:53:34;;;;;;;3.30;2.50;;;24.40;92.80;;;;;;1908281;75;21051;-73
2022/08/10 02:56:30;;;;;;;4.42;2.30;;;24.40;93.10;;;;;;1893180;75;21095;-73
2022/08/10 02:59:24;;;;;;;3.17;2.17;;;24.40;93.30;;;;;;1884911;75;21100;-73
2022/08/10 03:02:17;;;;;;;2.72;2.52;;;24.40;93.50;;;;;;1886928;75;21092;-73
2022/08/10 03:05:12;;;;;;;3.70;2.02;;;24.30;93.60;;;;;;1901090;75;21109;-73
2022/08/10 03:08:06;;;;;;;4.55;2.62;;;24.30;93.70;;;;;;1901601;75;21100;-73
2022/08/10 03:11:02;;;;;;;2.37;2.17;;;24.20;93.80;;;;;;1911147;75;21054;-73
2022/08/10 03:16:35;;;;;;;2.70;2.10;;;24.20;94.00;;;;;;1934526;72;22192;-72
2022/08/10 03:19:27;;;;;;;2.30;2.10;;;24.20;94.10;;;;;;1889822;75;21114;-72
2022/08/10 03:22:21;;;;;;;3.17;2.60;;;24.20;94.00;;;;;;1908633;75;21230;-74
2022/08/10 03:25:13;;;;;;;2.98;2.50;;;24.10;94.10;;;;;;1884736;75;21063;-72
2022/08/10 03:28:06;;;;;;;3.67;2.90;;;24.10;94.30;;;;;;1884630;75;21062;-72
2022/08/10 03:30:59;;;;;;;2.85;2.50;;;24.10;94.70;;;;;;1885779;75;21080;-72
2022/08/10 03:33:50;;;;;;;2.65;2.45;;;24.10;94.80;;;;;;1914555;75;21086;-72
2022/08/10 03:36:42;;;;;;;3.05;2.72;;;24.10;94.90;;;;;;1896488;75;21066;-72
2022/08/10 03:39:34;;;;;;;2.55;2.22;;;24.00;95.10;;;;;;1888331;75;21667;-72
2022/08/10 03:45:09;;;;;;;6.08;2.02;;;24.00;95.10;;;;;;1972231;72;22098;-73
2022/08/10 03:50:42;;;;;;;6.53;2.00;;;23.90;95.30;;;;;;1944596;72;22704;-72
2022/08/10 03:53:35;;;;;;;4.08;2.50;;;23.90;95.50;;;;;;1908635;75;21070;-72
2022/08/10 03:56:27;;;;;;;3.33;2.45;;;23.90;95.60;;;;;;1904894;75;21521;-72
2022/08/10 03:59:21;;;;;;;2.95;2.22;;;23.90;95.70;;;;;;1892271;75;21192;-72
2022/08/10 04:02:12;;;;;;;4.97;1.98;;;23.80;95.50;;;;;;1887590;75;21045;-73
2022/08/10 04:05:07;;;;;;;5.62;1.90;;;23.80;95.60;;;;;;1910777;75;21120;-73
2022/08/10 04:08:00;;;;;;;1.98;1.50;;;23.70;95.50;;;;;;1909958;75;21906;-73
2022/08/10 04:10:50;;;;;;;4.08;2.10;;;23.80;95.30;;;;;;1887915;75;21117;-72
2022/08/10 04:16:19;;;;;;;3.60;2.20;;;23.70;95.20;;;;;;1952550;72;22166;-74
2022/08/10 04:19:12;;;;;;;2.77;2.50;;;23.80;95.20;;;;;;1925321;73;21054;-74
2022/08/10 04:22:08;;;;;;;5.97;2.50;;;23.80;95.40;;;;;;1917346;75;21506;-75
2022/08/10 04:25:03;;;;;;;3.25;2.70;;;23.80;95.60;;;;;;1930753;73;21086;-75
2022/08/10 04:27:55;;;;;;;4.08;3.15;;;23.70;96.00;;;;;;1921055;73;21087;-75
2022/08/10 04:30:48;;;;;;;5.42;2.83;;;23.60;96.60;;;;;;1923295;73;21105;-74
2022/08/10 04:33:42;;;;;;;2.95;2.52;;;23.50;97.00;;;;;;1932710;73;21512;-75
2022/08/10 04:36:34;;;;;;;6.28;3.27;;;23.50;97.20;;;;;;1918967;73;21023;-73
2022/08/10 04:39:26;;;;;;;3.17;2.85;;;23.50;97.60;;;;;;1937726;73;21085;-73
2022/08/10 04:42:18;;;;;;;3.05;2.25;;;23.40;97.60;;;;;;1919828;73;21081;-72
2022/08/10 04:45:13;;;;;;;3.42;2.12;;;23.50;97.60;;;;;;1940899;73;21099;-72
2022/08/10 04:50:43;;;;;;;3.58;1.80;;;23.40;97.30;;;;;;1937521;72;22172;-72
2022/08/10 04:53:36;;;;;;;2.30;2.08;;;23.40;97.40;;;;;;1895723;75;21183;-73
2022/08/10 04:56:29;;;;;;;4.25;2.00;;;23.30;97.30;;;;;;1886439;75;21182;-73
2022/08/10 04:59:22;;;;;;;2.47;1.82;;;23.30;97.20;;;;;;1901359;75;21182;-73
2022/08/10 05:02:13;;;;;;;2.62;1.95;;;23.30;97.20;;;;;;1862818;76;21591;-73
2022/08/10 05:05:10;;;;;;;5.50;2.35;;;23.30;97.30;;;;;;1913411;75;21129;-73
2022/08/10 05:10:40;;;;;;;3.37;2.10;;;23.40;97.90;;;;;;1946901;72;22153;-73
2022/08/10 05:16:17;;;;;;;6.45;2.00;;;23.40;97.70;;;;;;1932840;72;22651;-82
2022/08/10 05:19:11;;;;;;;3.05;1.98;;;23.50;97.80;;;;;;1905392;75;21611;-85
2022/08/10 05:22:03;;;;;;;3.42;2.00;;;23.50;97.90;;;;;;1907585;75;21502;-85
2022/08/10 05:24:55;;;;;;;3.20;2.25;;;23.50;98.00;;;;;;1905161;75;21134;-84
2022/08/10 05:27:48;;;;;;;2.50;2.20;;;23.50;98.10;;;;;;1905873;75;21103;-85
2022/08/10 05:30:39;;;;;;;3.60;2.22;;;23.50;98.20;;;;;;1907064;75;21074;-85
2022/08/10 05:33:31;;;;;;;2.67;2.45;;;23.50;98.40;;;;;;1910353;75;21150;-81
2022/08/10 05:39:04;;;;;;;3.50;2.08;;;23.60;98.50;;;;;;1921857;72;22237;-83
2022/08/10 05:41:57;;;;;;;3.58;1.95;;;23.60;98.50;;;;;;1896291;73;21067;-85
2022/08/10 05:47:29;;;;;;;3.27;2.30;;;23.60;98.10;;;;;;1922725;72;22220;-82
2022/08/10 05:50:26;;;;;;;5.33;2.17;;;23.60;98.30;;;;;;1891037;75;21158;-88
2022/08/10 05:53:18;;;;;;;3.45;2.10;;;23.50;98.40;;;;;;1883093;75;21118;-86
2022/08/10 05:56:11;;;;;;;2.42;1.72;;;23.60;98.40;;;;;;1899348;75;21099;-85
2022/08/10 05:59:03;;;;;;;2.95;2.10;;;23.60;98.30;;;;;;1901030;75;21882;-90
2022/08/10 06:01:59;;;;;;;1.98;1.80;;;23.60;98.30;;;;;;1899110;75;21051;-84
2022/08/10 06:04:55;;;;;;;3.22;1.80;;;23.60;98.30;;;;;;1897769;75;21165;-83
2022/08/10 06:10:31;;;;;;;4.50;2.00;;;23.80;98.10;;;;;;1951782;72;22202;-85
2022/08/10 06:16:09;;;;;;;2.15;1.77;;;23.80;97.90;;;;;;1930307;72;22110;-86
2022/08/10 06:19:01;;;;;;;2.47;1.90;;;23.80;97.80;;;;;;1885306;75;21129;-77
2022/08/10 06:21:54;;;;;;;2.20;2.00;;;23.80;97.80;;;;;;1871516;75;21347;-85
2022/08/10 06:30:10;;;;;;;3.72;2.08;;;23.90;98.00;;;;;;1935955;72;22683;-81
2022/08/10 06:33:04;;;;;;;3.37;1.90;;;23.90;98.00;;;;;;1902552;75;21099;-81
2022/08/10 06:35:58;;;;;;;3.52;1.90;;;23.90;98.00;;;;;;1906623;75;21119;-79
2022/08/10 06:38:51;;;;;;;5.22;1.85;;;23.90;97.90;;;;;;1904431;75;21168;-80
2022/08/10 06:41:46;;;;;;;6.25;2.10;;;24.00;97.90;;;;;;1896295;75;21101;-81
2022/08/10 06:44:41;;;;;;;;;;;24.00;98.00;;;;;;1846560;76;21557;-79
2022/08/10 06:50:20;;;;;;;3.92;1.70;;;24.10;98.10;;;;;;1938416;72;22203;-84
2022/08/10 06:53:19;;;;;;;2.42;1.72;;;24.10;98.10;;;;;;1904137;75;21117;-86
2022/08/10 06:56:14;;;;;;;4.50;1.82;;;24.10;98.10;;;;;;1887190;75;21042;-87
2022/08/10 06:59:09;;;;;;;2.37;2.00;;;24.20;98.00;;;;;;1906803;75;21156;-85
2022/08/10 07:02:18;;;;;;;2.08;1.60;;;24.30;97.90;;;;;;1894567;75;21062;-86
2022/08/10 07:05:13;;;;;;;2.08;1.62;;;24.30;97.70;;;;;;1916277;75;21547;-87
2022/08/10 07:08:05;;;;;;;3.35;1.90;;;24.40;97.40;;;;;;1900786;75;21056;-86
2022/08/10 07:10:58;;;;;;;4.33;2.00;;;24.50;97.20;;;;;;1901576;75;21140;-86
2022/08/10 07:13:55;;;;;;;7.85;2.00;;;24.50;97.20;;;;;;1914391;75;21094;-86
2022/08/10 07:16:49;;;;;;;3.45;2.00;;;24.60;97.40;;;;;;1884725;75;21572;-83
2022/08/10 07:19:42;;;;;;;3.55;1.77;;;24.70;97.10;;;;;;1888754;75;21160;-82
2022/08/10 07:25:23;;;;;;;3.77;1.77;;;24.80;97.00;;;;;;1969159;72;22728;-83
2022/08/10 07:28:16;;;;;;;3.22;1.72;;;24.90;96.90;;;;;;1908687;73;21187;-83
2022/08/10 07:31:09;;;;;;;5.45;1.80;;;25.00;96.80;;;;;;1905766;74;21625;-83
2022/08/10 07:34:05;;;;;;;2.83;1.72;;;25.10;96.90;;;;;;1905251;74;21160;-82
2022/08/10 07:36:59;;;;;;;4.17;1.52;;;25.10;96.70;;;;;;1909584;74;21096;-86
2022/08/10 07:39:53;;;;;;;6.05;2.05;;;25.20;96.40;;;;;;1907404;74;21119;-83
2022/08/10 07:42:48;;;;;;;5.00;1.77;;;25.20;96.50;;;;;;1905078;74;21177;-81
2022/08/10 07:45:40;;;;;;;5.83;2.05;;;25.30;96.60;;;;;;1909649;74;21067;-82
2022/08/10 07:48:35;;;;;;;2.40;1.55;;;25.40;96.70;;;;;;1906972;74;21102;-84
2022/08/10 07:51:26;;;;;;;3.15;1.72;;;25.50;96.60;;;;;;1909710;74;21082;-81
2022/08/10 07:54:20;;;;;;;2.85;1.60;;;25.50;96.60;;;;;;1910141;74;21085;-83
2022/08/10 07:57:15;;;;;;;3.47;1.80;;;25.60;96.80;;;;;;1913628;74;21098;-81
2022/08/10 08:00:11;;;;;;;3.25;1.95;;;25.70;96.60;;;;;;1906291;74;21108;-82
2022/08/10 08:03:08;;;;;;;4.47;1.70;;;25.80;96.30;;;;;;1905573;74;21090;-83
2022/08/10 08:08:49;;;;;;;4.37;2.22;;;25.90;96.10;;;;;;1926448;72;22113;-83
2022/08/10 08:11:48;;;;;;;5.47;2.08;;;26.00;95.80;;;;;;1908858;74;21100;-84
2022/08/10 08:14:42;;;;;;;6.03;2.10;;;26.10;95.50;;;;;;1903868;75;21156;-83
2022/08/10 08:20:18;;;;;;;4.47;2.50;;;26.20;95.10;;;;;;1944547;72;22610;-82
2022/08/10 08:23:21;;;;;;;5.80;1.95;;;26.30;95.20;;;;;;1938604;73;21122;-82
2022/08/10 08:26:16;;;;;;;4.72;1.80;;;26.50;95.00;;;;;;1927757;73;21098;-81
2022/08/10 08:29:12;;;;;;;5.10;1.80;;;26.60;94.70;;;;;;1946821;73;21150;-81
2022/08/10 08:32:11;;;;;;;4.20;1.90;;;26.60;94.30;;;;;;1928116;73;21146;-81
2022/08/10 08:35:07;;;;;;;7.25;1.95;;;26.70;94.30;;;;;;1917536;73;21154;-81
2022/08/10 08:37:59;;;;;;;5.22;2.27;;;26.70;94.50;;;;;;1932295;73;21177;-78
2022/08/10 08:40:56;;;;;;;3.52;1.82;;;26.90;94.20;;;;;;1937345;73;21070;-83
2022/08/10 08:43:55;;;;;;;5.22;1.55;;;27.00;93.60;;;;;;1944952;73;21157;-80
2022/08/10 08:47:04;;;;;;;2.67;1.50;;;27.00;93.30;;;;;;1923333;73;21084;-79
2022/08/10 08:50:08;;;;;;;3.92;1.60;;;27.10;92.90;;;;;;1934126;73;21549;-81
2022/08/10 08:53:05;;;;;;;3.10;2.20;;;27.20;92.80;;;;;;1934131;73;21082;-82
2022/08/10 08:56:16;;;;;;;5.87;1.70;;;27.30;92.60;;;;;;1944525;73;21174;-82
2022/08/10 08:59:18;;;;;;;5.95;1.67;;;27.30;92.70;;;;;;1926695;73;21096;-82
2022/08/10 09:02:19;;;;;;;3.80;2.00;;;27.40;92.70;;;;;;1917868;73;21055;-82
2022/08/10 09:08:39;;;;;;;4.28;1.70;;;27.50;92.60;;;;;;1946319;72;22212;-81
2022/08/10 09:11:39;;;;;;;4.08;1.47;;;27.50;92.40;;;;;;1914779;74;21062;-82
2022/08/10 09:14:36;;;;;;;6.33;1.80;;;27.60;92.50;;;;;;1928863;73;21123;-81
2022/08/10 09:20:12;;;;;;;3.60;1.55;;;27.80;91.90;;;;;;1956474;72;22228;-82
2022/08/10 09:23:09;;;;;;;2.15;1.25;;;27.90;91.50;;;;;;1904479;75;21117;-81
2022/08/10 09:26:04;;;;;;;3.37;1.70;;;27.80;91.50;;;;;;1890076;75;21118;-81
2022/08/10 09:28:58;;;;;;;2.85;1.60;;;27.80;91.90;;;;;;1901058;75;21072;-82
2022/08/10 09:34:36;;;;;;;5.17;1.57;;;28.00;91.80;;;;;;1929061;72;22272;-82
2022/08/10 09:37:33;;;;;;;5.20;1.67;;;28.10;91.70;;;;;;1912606;73;21123;-81
2022/08/10 09:40:47;;;;;;;7.22;4.55;;;28.20;91.60;;;;;;1885869;75;21602;-82
2022/08/10 09:43:53;;;;;;;5.87;1.65;;;28.30;91.80;;;;;;1892473;75;21076;-82
2022/08/10 09:46:53;;;;;;;4.17;1.85;;;28.40;91.60;;;;;;1905302;75;21160;-81
2022/08/10 09:49:52;;;;;;;5.53;2.05;;;28.50;91.40;;;;;;1895703;75;21072;-81
2022/08/10 09:55:29;;;;;;;4.35;1.92;;;28.60;91.20;;;;;;1957456;72;22130;-82
2022/08/10 10:01:24;;;;;;;5.20;1.90;;;28.60;91.10;;;;;;1935554;72;22063;-82
2022/08/10 10:06:59;;;;;;;3.25;1.60;;;28.50;91.00;;;;;;1958525;72;22166;-82
2022/08/10 10:09:53;;;;;;;2.37;1.80;;;28.70;90.70;;;;;;1946936;73;21141;-82
2022/08/10 10:15:39;;;;;;;3.75;2.10;;;28.90;90.40;;;;;;1964307;72;22094;-81
2022/08/10 10:21:20;;;;;;;4.60;2.17;;;29.10;88.80;;;;;;1927675;72;22252;-82
2022/08/10 10:27:13;;;;;;;3.55;2.37;;;29.10;87.70;;;;;;1933123;72;22179;-82
2022/08/10 10:30:09;;;;;;;3.37;2.30;;;29.20;87.40;;;;;;1904558;75;21133;-82
2022/08/10 10:35:46;;;;;;;2.77;2.00;;;29.30;86.80;;;;;;1964157;72;22110;-82
2022/08/10 10:38:40;;;;;;;4.70;2.10;;;29.40;84.80;;;;;;1865479;76;21152;-82
2022/08/10 10:41:36;;;;;;;3.10;1.87;;;29.40;83.30;;;;;;1922880;73;21175;-82
2022/08/10 10:47:32;;;;;;;2.75;2.12;;;29.60;82.80;;;;;;1943962;72;22208;-84
2022/08/10 10:50:28;;;;;;;5.58;2.22;;;29.70;81.70;;;;;;1905390;75;21091;-81
2022/08/10 10:56:07;;;;;;;3.00;2.30;;;29.90;80.80;;;;;;1952456;72;22178;-82
2022/08/10 10:59:14;;;;;;;7.20;1.82;;;30.10;80.80;;;;;;1913371;73;21137;-82
2022/08/10 11:02:11;;;;;;;4.62;1.90;;;30.30;77.70;;;;;;1911079;74;21104;-80
2022/08/10 11:05:11;;;;;;;4.70;2.27;;;30.30;78.00;;;;;;1912955;74;21134;-80
2022/08/10 11:08:05;;;;;;;4.28;2.15;;;30.40;78.10;;;;;;1906922;74;21320;-81
2022/08/10 11:11:00;;;;;;;4.08;1.55;;;30.60;77.80;;;;;;1905534;74;21128;-81
2022/08/10 11:14:07;;;;;;;2.37;1.87;;;30.80;77.90;;;;;;1909295;74;21145;-84
2022/08/10 11:17:03;;;;;;;5.90;2.00;;;31.00;76.50;;;;;;1915125;74;21243;-84
2022/08/10 11:25:22;;;;;;;4.60;1.90;;;31.10;74.70;;;;;;1931449;72;22212;-84
2022/08/10 11:28:16;;;;;;;2.77;1.90;;;31.30;74.90;;;;;;1913542;75;21051;-84
2022/08/10 11:31:12;;;;;;;4.85;1.92;;;31.30;74.40;;;;;;1887225;75;21057;-85
2022/08/10 11:36:52;;;;;;;1.65;1.50;;;31.60;71.30;;;;;;1932620;72;22660;-84
2022/08/10 11:39:47;;;;;;;3.95;1.80;;;31.60;70.80;;;;;;1906687;74;21076;-83
2022/08/10 11:45:23;;;;;;;2.67;1.80;;;31.70;69.60;;;;;;1940435;72;22123;-81
2022/08/10 11:48:19;;;;;;;2.72;1.32;;;31.80;69.60;;;;;;1904389;75;21129;-81
2022/08/10 11:51:15;;;;;;;2.70;1.85;;;31.90;68.20;;;;;;1898829;75;21110;-81
2022/08/10 11:54:10;;;;;;;3.33;2.05;;;31.90;67.30;;;;;;1889608;75;21120;-81
2022/08/10 11:57:02;;;;;;;3.35;2.15;;;32.00;66.60;;;;;;1916906;75;21095;-80
2022/08/10 11:59:56;;;;;;;2.37;2.15;;;32.20;66.60;;;;;;1907867;75;21172;-81
2022/08/10 12:02:53;;;;;;;2.77;1.72;;;32.20;65.90;;;;;;1884556;75;21228;-81
2022/08/10 12:05:47;;;;;;;2.00;1.80;;;32.20;66.20;;;;;;1891640;75;21055;-82
2022/08/10 12:08:41;;;;;;;2.45;2.00;;;32.20;66.00;;;;;;1892836;75;21047;-82
2022/08/10 12:11:35;;;;;;;2.67;2.40;;;32.40;64.80;;;;;;1890759;75;21112;-82
2022/08/10 12:14:31;;;;;;;4.60;2.12;;;32.40;64.10;;;;;;1903483;75;21100;-82
2022/08/10 12:17:26;;;;;;;3.22;2.12;;;32.30;65.10;;;;;;1892352;75;21031;-82
2022/08/10 12:20:23;;;;;;;3.52;2.70;;;32.40;64.80;;;;;;1892235;75;21171;-82
2022/08/10 12:23:26;;;;;;;5.70;2.70;;;32.50;63.80;;;;;;1900320;75;21113;-82
2022/08/10 12:29:02;;;;;;;2.77;2.25;;;32.70;64.00;;;;;;1937495;72;22735;-81
2022/08/10 12:31:57;;;;;;;3.98;2.40;;;32.70;64.10;;;;;;1913280;74;21137;-82
2022/08/10 12:34:57;;;;;;;3.47;3.10;;;32.70;63.40;;;;;;1916700;74;21064;-81
2022/08/10 12:40:39;;;;;;;2.90;2.70;;;32.90;63.20;;;;;;1955948;72;22137;-82
2022/08/10 12:43:34;;;;;;;3.67;2.67;;;32.90;63.00;;;;;;1914455;73;21229;-82
2022/08/10 12:46:32;;;;;;;5.67;2.83;;;32.90;63.30;;;;;;1917469;73;21066;-81
2022/08/10 12:49:28;;;;;;;5.17;3.15;;;32.80;63.00;;;;;;1917512;75;21121;-82
2022/08/10 12:52:23;;;;;;;5.92;3.20;;;32.90;62.30;;;;;;1933363;73;21094;-82
2022/08/10 12:55:16;;;;;;;3.85;3.00;;;33.10;62.50;;;;;;1920762;73;21138;-82
2022/08/10 13:00:49;;;;;;;6.08;3.30;;;33.10;61.30;;;;;;1948177;72;22111;-82
2022/08/10 13:03:55;;;;;;;8.45;3.87;;;33.10;61.30;;;;;;1911919;74;21158;-82
2022/08/10 13:06:49;;;;;;;4.62;2.85;;;33.20;61.20;;;;;;1928963;74;21171;-82
2022/08/10 13:09:44;;;;;;;7.97;3.70;;;33.20;61.30;;;;;;1910130;74;21048;-82
2022/08/10 13:12:46;;;;;;;6.00;2.92;;;33.30;60.60;;;;;;1908587;74;21095;-81
2022/08/10 13:15:38;;;;;;;2.92;2.60;;;33.40;60.20;;;;;;1914240;74;21113;-84
2022/08/10 13:18:35;;;;;;;4.75;2.42;;;33.40;59.40;;;;;;1926970;74;21098;-83
2022/08/10 13:21:29;;;;;;;5.22;2.35;;;33.40;59.30;;;;;;1915004;74;21043;-82
2022/08/10 13:24:27;;;;;;;2.80;2.60;;;33.50;58.90;;;;;;1913668;74;21032;-81
2022/08/10 13:27:21;;;;;;;4.42;2.77;;;33.50;57.90;;;;;;1923171;74;21551;-81
2022/08/10 13:30:14;;;;;;;4.92;3.10;;;33.60;58.20;;;;;;1917301;74;21079;-81
2022/08/10 13:33:07;;;;;;;3.45;2.92;;;33.70;58.00;;;;;;1919362;74;21047;-80
2022/08/10 13:36:00;;;;;;;3.37;2.62;;;33.70;57.50;;;;;;1916086;74;21094;-81
2022/08/10 13:38:54;;;;;;;2.55;2.20;;;33.60;57.30;;;;;;1920585;74;21161;-81
2022/08/10 13:41:56;;;;;;;3.65;2.35;;;33.70;57.50;;;;;;1916881;74;21633;-80
2022/08/10 13:50:14;;;;;;;2.70;2.50;;;33.90;56.60;;;;;;1940872;72;22247;-80
2022/08/10 13:55:48;;;;;;;2.80;2.27;;;33.80;55.70;;;;;;1935521;72;22169;-84
2022/08/10 13:58:46;;;;;;;3.42;2.02;;;33.90;55.50;;;;;;1907179;74;21135;-84
2022/08/10 14:01:37;;;;;;;2.35;2.12;;;34.00;55.60;;;;;;1911924;74;21652;-82
2022/08/10 14:04:29;;;;;;;2.10;2.00;;;34.20;55.50;;;;;;1905511;74;21126;-82
2022/08/10 14:07:22;;;;;;;2.37;2.17;;;34.60;55.20;;;;;;1910036;75;21185;-80
2022/08/10 14:10:16;;;;;;;2.30;2.10;;;34.80;54.80;;;;;;1911545;75;21592;-81
2022/08/10 14:15:51;;;;;;;2.98;2.10;;;35.40;53.10;;;;;;1935527;72;22153;-83
2022/08/10 14:18:44;;;;;;;2.62;2.30;;;35.50;52.50;;;;;;1902548;75;21549;-82
2022/08/10 14:21:57;;;;;;;2.67;2.20;;;35.80;52.90;;;;;;1900150;75;21173;-80
2022/08/10 14:24:51;;;;;;;4.12;2.30;;;36.00;52.40;;;;;;1899343;75;21099;-82
2022/08/10 14:30:25;;;;;;;2.40;2.20;;;36.30;51.90;;;;;;1931284;72;22715;-88
2022/08/10 14:33:21;;;;;;;5.00;2.40;;;36.50;52.10;;;;;;1891796;75;21237;-83
2022/08/10 14:36:14;;;;;;;3.65;2.40;;;36.70;52.20;;;;;;1892597;75;21614;-83
2022/08/10 14:39:10;;;;;;;2.55;2.35;;;36.80;51.00;;;;;;1897315;75;21151;-80
2022/08/10 14:42:09;;;;;;;2.92;2.30;;;37.10;50.80;;;;;;1891005;75;21090;-83
2022/08/10 14:45:05;;;;;;;2.45;2.25;;;37.10;50.20;;;;;;1894366;75;21159;-85
2022/08/10 14:48:01;;;;;;;3.08;2.40;;;37.10;49.70;;;;;;1891244;75;21072;-84
2022/08/10 14:50:54;;;;;;;4.93;2.60;;;37.10;49.60;;;;;;1891628;75;21085;-82
2022/08/10 14:56:50;;;;;;;2.85;2.40;;;37.10;48.40;;;;;;1946052;72;22247;-84
2022/08/10 14:59:43;;;;;;;3.27;2.35;;;37.40;48.10;;;;;;1923719;73;21120;-78
2022/08/10 15:05:19;;;;;;;2.42;2.22;;;37.50;48.00;;;;;;1948681;72;22131;-81
2022/08/10 15:08:13;;;;;;;6.50;2.52;;;37.60;47.90;;;;;;1895646;75;21063;-81
2022/08/10 15:11:07;;;;;;;3.58;2.33;;;38.00;47.30;;;;;;1914355;75;21063;-81
2022/08/10 15:16:40;;;;;;;2.83;2.30;;;38.20;46.60;;;;;;1932728;72;22561;-80
2022/08/10 15:22:15;;;;;;;2.65;2.42;;;38.30;45.80;;;;;;1951249;72;22157;-81
2022/08/10 15:25:13;;;;;;;2.95;2.25;;;38.30;45.50;;;;;;1921131;73;21152;-83
2022/08/10 15:30:49;;;;;;;2.60;2.40;;;38.40;44.70;;;;;;1937189;72;22614;-81
2022/08/10 15:42:25;;;;;;;4.62;2.50;;;38.90;43.90;;;;;;1938588;72;22185;-84
2022/08/10 15:45:21;;;;;;;3.02;2.10;;;38.90;44.00;;;;;;1950000;73;21169;-83
2022/08/10 15:48:17;;;;;;;2.37;2.17;;;38.80;43.60;;;;;;1947391;73;21094;-84
2022/08/10 15:51:20;;;;;;;2.25;2.08;;;38.90;43.50;;;;;;1945268;73;21081;-80
2022/08/10 15:56:57;;;;;;;2.55;2.05;;;38.90;43.50;;;;;;1939126;72;22158;-85
2022/08/10 15:59:51;;;;;;;2.55;2.35;;;38.80;43.70;;;;;;1896391;75;21131;-83
2022/08/10 16:02:48;;;;;;;4.22;2.27;;;39.00;43.40;;;;;;1901940;75;21124;-81
2022/08/10 16:08:28;;;;;;;2.47;2.27;;;39.80;42.70;;;;;;1934661;72;22188;-83
2022/08/10 16:11:22;;;;;;;2.50;2.30;;;39.60;42.80;;;;;;1896158;74;21201;-83
2022/08/10 16:14:17;;;;;;;5.33;2.50;;;39.50;42.90;;;;;;1909774;75;21199;-81
2022/08/10 16:17:12;;;;;;;3.27;2.10;;;39.20;43.20;;;;;;1903403;75;21093;-81
2022/08/10 16:20:06;;;;;;;2.60;2.40;;;39.70;43.20;;;;;;1898920;75;21102;-82
2022/08/10 16:23:00;;;;;;;2.77;2.10;;;39.60;42.60;;;;;;1899825;75;21105;-83
2022/08/10 16:28:37;;;;;;;2.22;2.05;;;39.90;42.60;;;;;;1926121;72;22184;-85
2022/08/10 16:31:31;;;;;;;;;;;39.60;42.70;;;;;;1934624;73;21170;-82
2022/08/10 16:34:24;;;;;;;4.87;1.90;;;39.30;42.10;;;;;;1934416;73;20185;-81
2022/08/10 16:37:18;;;;;;;2.45;2.20;;;39.40;42.80;;;;;;1934640;73;21578;-86
2022/08/10 16:40:14;;;;;;;3.77;2.30;;;39.60;42.10;;;;;;1929897;73;21050;-87
2022/08/10 16:45:51;;;;;;;2.87;2.00;;;39.30;42.20;;;;;;1946579;72;22197;-89
2022/08/10 16:48:44;;;;;;;2.00;1.90;;;39.50;42.10;;;;;;1918249;73;21144;-90
2022/08/10 16:51:49;;;;;;;2.47;2.27;;;39.40;41.80;;;;;;1913721;74;21056;-89
2022/08/10 16:57:25;;;;;;;2.45;2.10;;;39.30;42.10;;;;;;1941857;72;22179;-81
2022/08/10 17:00:24;;;;;;;2.15;1.95;;;39.40;42.30;;;;;;1926075;73;21092;-82
2022/08/10 17:05:58;;;;;;;2.15;1.95;;;39.30;41.70;;;;;;1941977;72;22265;-80
2022/08/10 17:08:56;;;;;;;2.12;1.92;;;38.80;41.90;;;;;;1932992;73;21042;-85
2022/08/10 17:11:52;;;;;;;2.22;1.95;;;38.80;42.30;;;;;;1940467;73;21154;-83
2022/08/10 17:14:44;;;;;;;2.10;2.00;;;38.90;42.20;;;;;;1938427;73;21122;-81
2022/08/10 17:17:49;;;;;;;4.17;2.30;;;38.40;42.70;;;;;;1935582;73;21581;-82
2022/08/10 17:20:42;;;;;;;2.58;2.05;;;37.80;43.30;;;;;;1943774;73;21125;-84
2022/08/10 17:26:28;;;;;;;2.80;2.22;;;37.30;43.60;;;;;;1942137;72;22173;-82
2022/08/10 17:29:32;;;;;;;2.30;2.10;;;36.90;44.00;;;;;;1923356;73;21055;-84
2022/08/10 17:35:13;;;;;;;4.42;2.27;;;36.80;44.90;;;;;;1943478;72;22707;-81
2022/08/10 17:38:08;;;;;;;2.90;1.95;;;36.70;45.70;;;;;;1910206;75;21039;-80
2022/08/10 17:41:03;;;;;;;5.65;2.30;;;36.50;45.90;;;;;;1884620;75;21055;-80
2022/08/10 17:46:46;;;;;;;4.20;1.90;;;36.70;45.90;;;;;;1947910;72;22201;-81
2022/08/10 17:52:23;;;;;;;3.85;2.12;;;36.40;46.20;;;;;;1938335;72;23553;-81
2022/08/10 17:55:30;;;;;;;4.50;2.00;;;35.60;47.00;;;;;;1902703;73;21077;-81
2022/08/10 17:58:21;;;;;;;;;;;35.20;47.20;;;;;;1897026;75;21048;-82
2022/08/10 18:01:14;;;;;;;5.80;2.02;;;34.70;47.90;;;;;;1891507;74;20529;-82
2022/08/10 18:06:49;;;;;;;3.10;1.98;;;34.20;48.60;;;;;;1936126;72;22255;-81
2022/08/10 18:09:45;;;;;;;4.62;2.12;;;33.90;48.90;;;;;;1898817;74;21093;-81
2022/08/10 18:12:41;;;;;;;3.25;1.95;;;33.80;49.30;;;;;;1915489;74;21063;-81
2022/08/10 18:15:38;;;;;;;3.83;2.20;;;33.60;49.40;;;;;;1894569;75;21163;-80
2022/08/10 18:18:43;;;;;;;3.27;2.15;;;33.40;48.80;;;;;;1900698;74;21082;-81